الصفحة الرئيسية
METAR-TAF:

METAR-TAF

مطار :

مدينة غواتيمالا, غواتيمالا

دائرة عرض: 14-35N, خط طول: 090-31W, ارتفاع: 1489 متر

مراقبة الطقس الحالي

تاريخ ووقت الإصدار 47 دقيقة قبل الساعة 02:00UTC
ريح 10 عقدة من الشمال/الشمال الغربي
درجة الحرارة 19°درجة مئوية
الرطوبة 83%
ضغط 1026 hPa
الرؤية 10 كم أو أكثر
غيوم قليلة على ارتفاع 1600 قدم

METAR: MGGT 230200Z 34010KT 9999 FEW016 19/16 Q1026 A3030

زمن: 20:47 (02:47 UTC)

توقعات

التوقعات صالحة من23 الساعة 00 UTC إلى 23 الساعة 24 UTC
ريح 14 عقدة من الشمال
الرؤية 10 كم أو أكثر
غيوم متفرقة على ارتفاع 2000 قدم
أصبح
من 23 الساعة 01 UTC إلى 23 الساعة 03 UTC
ريح 10 عقدة من الشمال
غيوم متفرقة على ارتفاع 1600 قدم
أصبح
من 23 الساعة 08 UTC إلى 23 الساعة 10 UTC
غيوم متفرقة على ارتفاع 1400 قدم
أصبح
من 23 الساعة 14 UTC إلى 23 الساعة 16 UTC
غيوم قليلة على ارتفاع 1800 قدم
أصبح
من 23 الساعة 18 UTC إلى 23 الساعة 20 UTC
ريح 10 عقدة من الشمال الشرقي
غيوم قليلة على ارتفاع 2000 قدم

TAF: MGGT 2300/2324 36014KT 9999 SCT020 TX26/2320Z TN15/2312Z BECMG 2301/2303 36010KT SCT016 BECMG 2308/2310 SCT014 BECMG 2314/2316 FEW018 BECMG 2318/2320 05010KT FEW020

أرصاد الطقس والتوقعات من أكثر من 4000 مطار (تقارير الطقس للمطار METAR والتنبؤ بالطقس بالمطارTAF).

المحطات المتاحة هي النقط الصفراء والحمراء على الخريطة.

حرك المؤشر فوق النقطة لمعرفة اسم المحطة.

ثم انقر لمعرفة أرصاد وتوقعات الطقس.

لتغيير الخارطة: اضغط على الأزرار الخضراء مع رمز الصليب الأسود للتكبير. على الزر الأخضر مع شرطة للتصغير، أو على الأسهم الخضراء للخرائط المجاورة.


METAR-TAF: